アンタナナリボ の空港の天気 - METARとTAF

イヴァト空港(アンタナナリボ) ( FMMI / TNR ) - マダガスカル アンタナナリボ
飛行場実況気象(Metar)
観測時間09/25 03:00 EAT (09/25 00:00 UTC)
風向・風速東南東 3m/s
視程10km以上
天気現象
少しの雲 雲底高度 520m
気温12℃
湿度94%
気圧1025hPa
METARFMMI 250000Z 11006KT 9999 FEW017 12/11 Q1025 NOSIG
過去の天気等 Google飛行場航空写真 Wunderground天気予報

過去48時間のMETAR

飛行場予報(TAF)
発表時間: -
25日14時 EAT ~ 25日18時 EAT に 確率 30% で一時的に
視程4500m
天気現象雨霧雨
TAF
FMMI 242300Z 2500/2606 14008KT 9999 FEW017 BKN020
PROB30 TEMPO 2511/2515 4500 RADZ